Terminal Aerodrome Forecast
Issued by NWS Denver/Boulder, CO

Home | Current Version | Previous Version | Text Only | Print | Product List | Glossary On
Versions: 1 2 3 4 5 6 7 8 9 10 11 12 13 14 15 16 17 18 19 20 21 22 23 24 25 26 27 28 29 30 31 32 33 34 35 36 37 38 39 40
000
FTUS45 KBOU 240305 AAC
TAFDEN
TAF AMD
KDEN 240305Z 2403/2506 06011KT P6SM -RA OVC005
     FM240500 02005KT P6SM VCSH OVC007
     FM241100 36007KT 5SM BR OVC003
     FM241600 02007KT P6SM VCSH OVC003
     FM241800 03007KT P6SM VCSH BKN008 OVC012
     FM250000 03007KT P6SM BKN008=

USA.gov is the U.S. government's official web portal to all federal, state and local government web resources and services.